createdAt,value
2023-11-24T00:00:12.585Z,100010.56
2023-11-24T00:02:41.325Z,100011.16
2023-11-24T00:05:10.632Z,100003.59
2023-11-24T00:07:40.466Z,100008.94
2023-11-24T00:10:09.916Z,100002.25
2023-11-24T00:12:38.306Z,99989.94
2023-11-24T00:15:07.643Z,99983.44
2023-11-24T00:17:39.392Z,99982.81
2023-11-24T00:20:11.070Z,99999.19
2023-11-24T00:22:39.567Z,100002.66
2023-11-24T00:25:10.598Z,99985.78
2023-11-24T00:27:39.634Z,100010.56
2023-11-24T00:30:09.622Z,100014.00
2023-11-24T00:32:40.940Z,99998.03
2023-11-24T00:35:09.746Z,99998.75
2023-11-24T00:37:38.101Z,100003.00
2023-11-24T00:40:14.759Z,100001.47
2023-11-24T00:42:44.336Z,100006.19
2023-11-24T00:45:13.563Z,100024.13
2023-11-24T00:47:43.794Z,100009.69
2023-11-24T00:50:12.305Z,100009.13
2023-11-24T00:52:40.523Z,99992.09
2023-11-24T00:55:09.230Z,99991.16
2023-11-24T00:57:38.074Z,99999.84
2023-11-24T01:00:09.608Z,100016.59
2023-11-24T01:02:38.527Z,100026.50
2023-11-24T01:05:10.614Z,100022.69
2023-11-24T01:07:39.109Z,100016.94
2023-11-24T01:10:10.119Z,100034.16
2023-11-24T01:12:39.859Z,100002.44
2023-11-24T01:15:10.014Z,100017.53
2023-11-24T01:17:38.507Z,100000.13
2023-11-24T01:20:11.824Z,100022.97
2023-11-24T01:22:40.390Z,100017.25
2023-11-24T01:25:10.196Z,100005.16
2023-11-24T01:27:38.710Z,100024.00
2023-11-24T01:30:09.631Z,100029.97
2023-11-24T01:32:38.540Z,100028.25
2023-11-24T01:35:10.728Z,100004.06
2023-11-24T01:37:39.246Z,100007.66
2023-11-24T01:40:10.782Z,100001.69
2023-11-24T01:42:39.807Z,100005.97
2023-11-24T01:45:10.627Z,99998.81
2023-11-24T01:47:39.530Z,100000.19
2023-11-24T01:50:11.999Z,99999.84
2023-11-24T01:52:42.409Z,99994.88
2023-11-24T01:55:14.154Z,99995.00
2023-11-24T01:57:42.911Z,99991.44
2023-11-24T02:00:14.823Z,99986.72
2023-11-24T02:02:43.989Z,99994.88
2023-11-24T02:05:15.328Z,99974.59
2023-11-24T02:07:43.800Z,99974.09
2023-11-24T02:10:14.243Z,99971.16
2023-11-24T02:12:42.618Z,99949.09
2023-11-24T02:15:11.870Z,99956.44
2023-11-24T02:17:42.107Z,99966.00
2023-11-24T02:20:15.826Z,99955.25
2023-11-24T02:22:45.876Z,99965.44
2023-11-24T02:25:15.109Z,99967.34
2023-11-24T02:27:43.485Z,99974.94
2023-11-24T02:30:12.873Z,99953.91
2023-11-24T02:32:41.333Z,99964.91
2023-11-24T02:35:10.986Z,99967.00
2023-11-24T02:37:39.855Z,99964.41
2023-11-24T02:40:12.203Z,99958.19
2023-11-24T02:42:41.402Z,99972.66
2023-11-24T02:45:10.271Z,99972.81
2023-11-24T02:47:38.890Z,99968.16
2023-11-24T02:50:08.976Z,99971.31
2023-11-24T02:52:37.319Z,99964.63
2023-11-24T02:55:06.609Z,99958.41
2023-11-24T02:57:36.357Z,99964.81
2023-11-24T03:00:06.494Z,99946.00
2023-11-24T03:02:33.809Z,99954.25
2023-11-24T03:05:02.211Z,99960.34
2023-11-24T03:07:30.620Z,99966.81
2023-11-24T03:09:59.197Z,99935.81
2023-11-24T03:12:28.179Z,99932.81
2023-11-24T03:14:57.977Z,99919.78
2023-11-24T03:17:26.389Z,99943.31
2023-11-24T03:19:56.283Z,99944.88
2023-11-24T03:22:24.620Z,99941.75
2023-11-24T03:24:53.112Z,99936.47
2023-11-24T03:27:21.581Z,99933.47
2023-11-24T03:29:51.343Z,99941.97
2023-11-24T03:32:21.196Z,99940.41
2023-11-24T03:34:49.705Z,99922.22
2023-11-24T03:37:18.740Z,99921.22
2023-11-24T03:39:47.078Z,99926.72
2023-11-24T03:42:15.507Z,99927.59
2023-11-24T03:44:43.845Z,99926.97
2023-11-24T03:47:12.297Z,99913.19
2023-11-24T03:49:42.154Z,99923.81
2023-11-24T03:52:10.520Z,99922.88
2023-11-24T03:54:38.936Z,99893.00
2023-11-24T03:57:07.376Z,99898.03
2023-11-24T03:59:35.656Z,99890.38
2023-11-24T04:02:05.952Z,99893.13
2023-11-24T04:04:34.476Z,99871.06
2023-11-24T04:07:05.447Z,99890.75
2023-11-24T04:09:34.024Z,99874.66
2023-11-24T04:12:02.415Z,99870.31
2023-11-24T04:14:31.067Z,99867.13
2023-11-24T04:17:01.314Z,99886.69
2023-11-24T04:19:29.813Z,99900.63
2023-11-24T04:21:58.246Z,99905.09
2023-11-24T04:24:28.154Z,99901.03
2023-11-24T04:26:57.399Z,99898.31
2023-11-24T04:29:25.879Z,99881.50
2023-11-24T04:31:55.693Z,99906.44
2023-11-24T04:34:25.150Z,99897.56
2023-11-24T04:36:54.962Z,99900.63
2023-11-24T04:39:23.374Z,99899.63
2023-11-24T04:41:53.483Z,99892.97
2023-11-24T04:44:22.216Z,99886.69
2023-11-24T04:46:50.859Z,99889.59
2023-11-24T04:49:20.058Z,99888.94
2023-11-24T04:51:48.576Z,99884.63
2023-11-24T04:54:16.970Z,99882.19
2023-11-24T04:56:45.281Z,99888.47
2023-11-24T04:59:15.141Z,99867.16
2023-11-24T05:01:43.929Z,99874.66
2023-11-24T05:04:12.504Z,99877.25
2023-11-24T05:06:40.869Z,99880.41
2023-11-24T05:09:09.434Z,99891.06
2023-11-24T05:11:37.640Z,99874.91
2023-11-24T05:14:05.946Z,99875.75
2023-11-24T05:16:35.826Z,99883.00
2023-11-24T05:19:04.531Z,99866.09
2023-11-24T05:21:32.905Z,99876.00
2023-11-24T05:24:02.241Z,99883.25
2023-11-24T05:26:30.839Z,99872.34
2023-11-24T05:29:12.576Z,99871.75
2023-11-24T05:31:42.945Z,99852.84
2023-11-24T05:34:11.401Z,99861.50
2023-11-24T05:36:39.936Z,99850.31
2023-11-24T05:39:09.101Z,99856.41
2023-11-24T05:41:37.489Z,99854.47
2023-11-24T05:44:06.236Z,99860.03
2023-11-24T05:46:34.759Z,99852.69
2023-11-24T05:49:05.235Z,99851.94
2023-11-24T05:51:34.372Z,99850.69
2023-11-24T05:54:02.720Z,99857.13
2023-11-24T05:56:31.006Z,99863.66
2023-11-24T05:58:59.486Z,99849.72
2023-11-24T06:01:27.863Z,99839.44
2023-11-24T06:03:56.255Z,99845.31
2023-11-24T06:06:26.025Z,99846.06
2023-11-24T06:08:54.397Z,99826.59
2023-11-24T06:11:22.733Z,99853.13
2023-11-24T06:13:51.722Z,99842.00
2023-11-24T06:16:20.072Z,99811.69
2023-11-24T06:18:48.556Z,99842.94
2023-11-24T06:21:19.896Z,99835.41
2023-11-24T06:23:52.234Z,99852.47
2023-11-24T06:26:20.608Z,99847.88
2023-11-24T06:28:49.001Z,99862.94
2023-11-24T06:31:17.490Z,99854.00
2023-11-24T06:33:45.958Z,99852.63
2023-11-24T06:36:14.371Z,99838.97
2023-11-24T06:38:42.652Z,99852.97
2023-11-24T06:41:13.307Z,99846.59
2023-11-24T06:43:41.751Z,99829.22
2023-11-24T06:46:10.151Z,99827.47
2023-11-24T06:48:39.434Z,99841.25
2023-11-24T06:51:08.530Z,99840.56
2023-11-24T06:53:37.163Z,99841.72
2023-11-24T06:56:05.836Z,99848.84
2023-11-24T06:58:35.612Z,99830.22
2023-11-24T07:01:06.078Z,99844.59
2023-11-24T07:03:35.137Z,99842.84
2023-11-24T07:06:04.161Z,99852.22
2023-11-24T07:08:32.495Z,99843.22
2023-11-24T07:11:01.002Z,99843.53
2023-11-24T07:13:29.522Z,99850.19
2023-11-24T07:15:59.303Z,99841.78
2023-11-24T07:18:27.893Z,99854.31
2023-11-24T07:20:56.403Z,99850.56
2023-11-24T07:23:24.676Z,99850.69
2023-11-24T07:25:53.079Z,99858.59
2023-11-24T07:28:21.554Z,99852.63
2023-11-24T07:30:50.226Z,99840.16
2023-11-24T07:33:20.143Z,99855.75
2023-11-24T07:35:48.605Z,99850.88
2023-11-24T07:38:17.635Z,99864.84
2023-11-24T07:40:46.030Z,99841.22
2023-11-24T07:43:14.598Z,99840.22
2023-11-24T07:45:43.495Z,99825.94
2023-11-24T07:48:12.274Z,99821.34
2023-11-24T07:50:42.124Z,99813.63
2023-11-24T07:53:14.654Z,99821.34
2023-11-24T07:55:43.169Z,99808.16
2023-11-24T07:58:12.333Z,99798.88
2023-11-24T08:00:41.509Z,99794.69
2023-11-24T08:03:09.929Z,99771.38
2023-11-24T08:05:38.463Z,99801.41
2023-11-24T08:08:08.239Z,99785.88
2023-11-24T08:10:36.687Z,99797.66
2023-11-24T08:13:04.989Z,99792.38
2023-11-24T08:15:33.567Z,99776.72
2023-11-24T08:18:02.015Z,99776.50
2023-11-24T08:20:30.585Z,99788.59
2023-11-24T08:22:59.366Z,99778.69
2023-11-24T08:25:29.327Z,99768.53
2023-11-24T08:27:58.155Z,99765.44
2023-11-24T08:30:26.624Z,99776.19
2023-11-24T08:32:55.081Z,99757.38
2023-11-24T08:35:23.534Z,99780.19
2023-11-24T08:37:52.119Z,99773.03
2023-11-24T08:40:22.869Z,99776.50
2023-11-24T08:42:53.277Z,99768.69
2023-11-24T08:45:23.658Z,99767.47
2023-11-24T08:47:52.058Z,99780.25
2023-11-24T08:50:20.555Z,99754.00
2023-11-24T08:52:49.551Z,99747.75
2023-11-24T08:55:21.123Z,99746.25
2023-11-24T08:57:50.036Z,99740.84
2023-11-24T09:00:20.545Z,99725.88
2023-11-24T09:02:50.357Z,99742.56
2023-11-24T09:05:19.151Z,99738.22
2023-11-24T09:07:47.840Z,99750.22
2023-11-24T09:10:16.645Z,99735.94
2023-11-24T09:12:45.450Z,99733.47
2023-11-24T09:15:14.562Z,99698.13
2023-11-24T09:17:45.063Z,99716.72
2023-11-24T09:20:17.981Z,99699.44
2023-11-24T09:22:46.811Z,99716.25
2023-11-24T09:25:17.347Z,99696.56
2023-11-24T09:27:46.917Z,99697.16
2023-11-24T09:30:15.887Z,99691.19
2023-11-24T09:32:47.126Z,99691.31
2023-11-24T09:35:15.923Z,99689.66
2023-11-24T09:37:46.498Z,99666.94
2023-11-24T09:40:17.940Z,99663.97
2023-11-24T09:42:48.795Z,99650.97
2023-11-24T09:45:20.686Z,99666.34
2023-11-24T09:47:52.965Z,99668.75
2023-11-24T09:50:26.777Z,99678.25
2023-11-24T09:52:57.424Z,99676.97
2023-11-24T09:55:28.468Z,99660.25
2023-11-24T09:57:58.599Z,99677.78
2023-11-24T10:00:28.700Z,99672.72
2023-11-24T10:03:04.171Z,99669.97
2023-11-24T10:05:33.514Z,99647.81
2023-11-24T10:08:02.589Z,99662.66
2023-11-24T10:10:31.274Z,99652.09
2023-11-24T10:13:01.414Z,99660.03
2023-11-24T10:15:32.173Z,99651.88
2023-11-24T10:18:03.721Z,99647.34
2023-11-24T10:20:33.940Z,99647.28
2023-11-24T10:23:05.210Z,99619.81
2023-11-24T10:25:35.975Z,99617.69
2023-11-24T10:28:08.298Z,99619.97
2023-11-24T10:30:37.429Z,99633.75
2023-11-24T10:33:07.944Z,99627.97
2023-11-24T10:35:56.337Z,99591.69
2023-11-24T10:38:26.509Z,99570.28
2023-11-24T10:40:55.801Z,99560.16
2023-11-24T10:43:24.889Z,99564.47
2023-11-24T10:45:53.997Z,99568.28
2023-11-24T10:48:29.386Z,99561.72
2023-11-24T10:51:00.537Z,99561.28
2023-11-24T10:53:37.048Z,99551.25
2023-11-24T10:56:07.226Z,99554.00
2023-11-24T10:58:35.857Z,99544.28
2023-11-24T11:01:04.878Z,99531.81
2023-11-24T11:03:37.194Z,99541.19
2023-11-24T11:06:15.788Z,99545.63
2023-11-24T11:08:48.031Z,99534.78
2023-11-24T11:11:36.415Z,99521.09
2023-11-24T11:14:09.008Z,99526.72
2023-11-24T11:16:39.369Z,99524.53
2023-11-24T11:19:34.157Z,99527.41
2023-11-24T11:22:02.911Z,99501.84
2023-11-24T11:24:31.571Z,99489.09
2023-11-24T11:27:00.291Z,99478.75
2023-11-24T11:29:33.405Z,99472.28
2023-11-24T11:32:06.103Z,99482.25
2023-11-24T11:34:36.912Z,99476.84
2023-11-24T11:37:13.332Z,99483.47
2023-11-24T11:39:54.997Z,99472.38
2023-11-24T11:42:33.349Z,99464.59
2023-11-24T11:45:11.288Z,99473.50
2023-11-24T11:47:51.668Z,99461.41
2023-11-24T11:50:22.612Z,99466.75
2023-11-24T11:52:51.554Z,99446.09
2023-11-24T11:55:23.013Z,99465.19
2023-11-24T11:57:54.712Z,99467.63
2023-11-24T12:00:27.651Z,99452.69
2023-11-24T12:02:57.893Z,99446.19
2023-11-24T12:05:28.318Z,99452.78
2023-11-24T12:07:59.827Z,99435.97
2023-11-24T12:10:31.289Z,99464.75
2023-11-24T12:13:05.623Z,99457.41
2023-11-24T12:15:35.691Z,99451.91
2023-11-24T12:18:06.765Z,99461.88
2023-11-24T12:20:38.658Z,99459.00
2023-11-24T12:23:09.172Z,99451.63
2023-11-24T12:25:40.545Z,99466.31
2023-11-24T12:28:11.072Z,99451.47
2023-11-24T12:30:43.006Z,99480.53
2023-11-24T12:33:19.960Z,99476.25
2023-11-24T12:35:50.410Z,99467.16
2023-11-24T12:38:19.572Z,99471.31
2023-11-24T12:40:49.071Z,99483.25
2023-11-24T12:43:18.682Z,99485.66
2023-11-24T12:45:50.186Z,99444.13
2023-11-24T12:48:22.789Z,99446.44
2023-11-24T12:50:57.369Z,99443.56
2023-11-24T12:53:26.339Z,99441.44
2023-11-24T12:55:54.981Z,99437.28
2023-11-24T12:58:25.130Z,99439.25
2023-11-24T13:00:55.524Z,99433.78
2023-11-24T13:03:24.307Z,99417.94
2023-11-24T13:05:54.520Z,99407.84
2023-11-24T13:08:23.063Z,99424.63
2023-11-24T13:10:54.468Z,99427.81
2023-11-24T13:13:25.781Z,99425.47
2023-11-24T13:15:54.754Z,99438.97
2023-11-24T13:18:23.418Z,99422.72
2023-11-24T13:20:51.918Z,99404.75
2023-11-24T13:23:21.664Z,99410.09
2023-11-24T13:25:50.563Z,99406.34
2023-11-24T13:28:18.995Z,99406.16
2023-11-24T13:30:51.471Z,99410.41
2023-11-24T13:33:19.870Z,99410.25
2023-11-24T13:35:48.260Z,99392.81
2023-11-24T13:38:17.955Z,99391.88
2023-11-24T13:40:47.808Z,99379.91
2023-11-24T13:43:16.444Z,99389.22
2023-11-24T13:45:45.032Z,99369.19
2023-11-24T13:48:13.807Z,99374.50
2023-11-24T13:50:42.305Z,99364.00
2023-11-24T13:53:13.328Z,99361.19
2023-11-24T13:55:44.949Z,99358.97
2023-11-24T13:58:15.488Z,99371.50
2023-11-24T14:00:44.182Z,99351.13
2023-11-24T14:03:12.920Z,99345.34
2023-11-24T14:05:42.182Z,99355.72
2023-11-24T14:08:11.523Z,99352.19
2023-11-24T14:10:40.001Z,99329.59
2023-11-24T14:13:10.813Z,99349.22
2023-11-24T14:15:41.207Z,99344.56
2023-11-24T14:18:10.194Z,99342.63
2023-11-24T14:20:41.075Z,99353.00
2023-11-24T14:23:09.513Z,99355.91
2023-11-24T14:25:38.180Z,99360.63
2023-11-24T14:28:06.745Z,99344.41
2023-11-24T14:31:02.006Z,99360.06
2023-11-24T14:33:31.513Z,99356.59
2023-11-24T14:35:59.858Z,99354.44
2023-11-24T14:38:31.159Z,99358.88
2023-11-24T14:41:05.727Z,99354.59
2023-11-24T14:43:34.869Z,99356.38
2023-11-24T14:46:04.931Z,99347.66
2023-11-24T14:48:33.288Z,99346.31
2023-11-24T14:51:01.869Z,99345.81
2023-11-24T14:53:31.705Z,99345.97
2023-11-24T14:56:00.321Z,99338.13
2023-11-24T14:58:30.535Z,99352.97
2023-11-24T15:00:59.051Z,99322.16
2023-11-24T15:03:30.401Z,99328.22
2023-11-24T15:05:58.853Z,99314.47
2023-11-24T15:08:28.303Z,99314.84
2023-11-24T15:10:56.938Z,99324.44
2023-11-24T15:13:26.217Z,99331.31
2023-11-24T15:15:54.797Z,99317.19
2023-11-24T15:18:23.113Z,99334.44
2023-11-24T15:20:54.753Z,99329.97
2023-11-24T15:23:25.001Z,99341.47
2023-11-24T15:25:55.063Z,99333.47
2023-11-24T15:28:24.312Z,99317.47
2023-11-24T15:30:53.947Z,99299.84
2023-11-24T15:33:23.010Z,99300.66
2023-11-24T15:35:53.356Z,99312.84
2023-11-24T15:38:24.276Z,99315.41
2023-11-24T15:40:53.772Z,99292.88
2023-11-24T15:43:22.920Z,99300.81
2023-11-24T15:45:54.082Z,99286.25
2023-11-24T15:48:22.821Z,99289.56
2023-11-24T15:50:53.172Z,99282.53
2023-11-24T15:53:23.321Z,99278.09
2023-11-24T15:55:52.778Z,99292.09
2023-11-24T15:58:26.403Z,99288.38
2023-11-24T16:00:55.999Z,99299.69
2023-11-24T16:03:25.887Z,99297.50
2023-11-24T16:05:59.278Z,99300.31
2023-11-24T16:08:34.354Z,99288.00
2023-11-24T16:11:11.105Z,99289.66
2023-11-24T16:13:42.632Z,99276.13
2023-11-24T16:16:11.607Z,99285.06
2023-11-24T16:18:41.779Z,99279.41
2023-11-24T16:21:12.282Z,99288.72
2023-11-24T16:23:40.765Z,99274.28
2023-11-24T16:26:11.428Z,99271.25
2023-11-24T16:28:40.759Z,99275.59
2023-11-24T16:31:09.233Z,99275.94
2023-11-24T16:33:38.997Z,99248.25
2023-11-24T16:36:09.666Z,99261.78
2023-11-24T16:38:42.452Z,99249.25
2023-11-24T16:41:11.284Z,99259.00
2023-11-24T16:43:40.181Z,99273.00
2023-11-24T16:46:09.555Z,99262.88
2023-11-24T16:48:41.794Z,99256.84
2023-11-24T16:51:10.148Z,99262.31
2023-11-24T16:53:39.940Z,99268.66
2023-11-24T16:56:08.597Z,99293.97
2023-11-24T16:58:36.974Z,99259.88
2023-11-24T17:01:05.477Z,99269.78
2023-11-24T17:03:38.529Z,99249.75
2023-11-24T17:06:07.717Z,99278.44
2023-11-24T17:08:36.016Z,99284.16
2023-11-24T17:11:07.456Z,99271.19
2023-11-24T17:13:36.726Z,99272.56
2023-11-24T17:16:06.420Z,99275.88
2023-11-24T17:18:37.510Z,99232.78
2023-11-24T17:21:06.449Z,99252.19
2023-11-24T17:23:36.204Z,99246.47
2023-11-24T17:26:07.429Z,99257.66
2023-11-24T17:28:36.083Z,99251.31
2023-11-24T17:31:05.758Z,99245.06
2023-11-24T17:33:34.963Z,99247.34
2023-11-24T17:36:04.709Z,99240.94
2023-11-24T17:38:33.238Z,99226.78
2023-11-24T17:41:02.051Z,99230.00
2023-11-24T17:43:31.872Z,99210.91
2023-11-24T17:46:00.321Z,99215.50
2023-11-24T17:48:28.716Z,99214.72
2023-11-24T17:50:57.106Z,99220.09
2023-11-24T17:53:25.364Z,99221.94
2023-11-24T17:55:53.802Z,99211.34
2023-11-24T17:58:22.183Z,99214.09
2023-11-24T18:00:54.610Z,99216.25
2023-11-24T18:03:23.033Z,99210.59
2023-11-24T18:05:52.041Z,99226.13
2023-11-24T18:08:23.344Z,99233.50
2023-11-24T18:10:52.085Z,99216.59
2023-11-24T18:13:20.590Z,99234.59
2023-11-24T18:15:49.315Z,99222.69
2023-11-24T18:18:19.189Z,99227.47
2023-11-24T18:20:47.800Z,99244.13
2023-11-24T18:23:16.174Z,99251.72
2023-11-24T18:25:46.792Z,99244.75
2023-11-24T18:28:15.661Z,99252.41
2023-11-24T18:30:44.491Z,99260.53
2023-11-24T18:33:13.308Z,99261.66
2023-11-24T18:35:44.753Z,99260.75
2023-11-24T18:38:13.225Z,99268.91
2023-11-24T18:40:41.818Z,99266.97
2023-11-24T18:43:10.263Z,99267.66
2023-11-24T18:45:38.672Z,99244.41
2023-11-24T18:48:07.513Z,99224.28
2023-11-24T18:50:36.011Z,99264.41
2023-11-24T18:53:05.863Z,99272.59
2023-11-24T18:55:34.495Z,99247.19
2023-11-24T18:58:06.071Z,99245.50
2023-11-24T19:00:34.453Z,99250.28
2023-11-24T19:03:05.782Z,99257.56
2023-11-24T19:05:34.263Z,99250.00
2023-11-24T19:08:02.681Z,99284.34
2023-11-24T19:10:33.048Z,99299.88
2023-11-24T19:13:01.446Z,99310.00
2023-11-24T19:15:30.023Z,99308.41
2023-11-24T19:17:58.409Z,99336.94
2023-11-24T19:20:26.865Z,99341.34
2023-11-24T19:22:55.504Z,99346.06
2023-11-24T19:25:23.938Z,99360.81
2023-11-24T19:27:53.884Z,99377.16
2023-11-24T19:30:22.213Z,99383.63
2023-11-24T19:32:52.399Z,99379.50
2023-11-24T19:35:21.021Z,99393.75
2023-11-24T19:37:49.492Z,99391.75
2023-11-24T19:40:18.631Z,99390.88
2023-11-24T19:42:47.002Z,99392.59
2023-11-24T19:45:17.604Z,99412.81
2023-11-24T19:47:45.947Z,99411.59
2023-11-24T19:50:14.555Z,99422.69
2023-11-24T19:52:42.855Z,99435.56
2023-11-24T19:55:11.509Z,99443.06
2023-11-24T19:57:39.866Z,99456.34
2023-11-24T20:00:11.187Z,99462.09
2023-11-24T20:02:40.886Z,99471.41
2023-11-24T20:05:10.109Z,99474.28
2023-11-24T20:07:38.365Z,99468.22
2023-11-24T20:10:08.044Z,99480.13
2023-11-24T20:12:36.324Z,99489.25
2023-11-24T20:15:05.202Z,99484.69
2023-11-24T20:17:35.002Z,99507.13
2023-11-24T20:20:05.328Z,99484.50
2023-11-24T20:22:33.627Z,99520.72
2023-11-24T20:25:04.488Z,99529.25
2023-11-24T20:27:32.969Z,99544.31
2023-11-24T20:30:01.566Z,99559.28
2023-11-24T20:32:30.153Z,99564.53
2023-11-24T20:34:58.842Z,99566.66
2023-11-24T20:37:28.706Z,99581.50
2023-11-24T20:39:58.331Z,99579.97
2023-11-24T20:42:27.314Z,99609.75
2023-11-24T20:44:55.677Z,99609.50
2023-11-24T20:47:23.949Z,99614.28
2023-11-24T20:49:52.662Z,99618.69
2023-11-24T20:52:21.620Z,99633.31
2023-11-24T20:54:51.490Z,99636.75
2023-11-24T20:57:19.788Z,99625.66
2023-11-24T20:59:48.486Z,99642.97
2023-11-24T21:02:17.158Z,99663.56
2023-11-24T21:04:46.026Z,99647.91
2023-11-24T21:07:15.897Z,99658.78
2023-11-24T21:09:44.206Z,99672.25
2023-11-24T21:12:14.324Z,99662.13
2023-11-24T21:14:42.762Z,99666.41
2023-11-24T21:17:11.313Z,99669.91
2023-11-24T21:19:40.232Z,99666.38
2023-11-24T21:22:08.767Z,99671.91
2023-11-24T21:24:37.150Z,99677.06
2023-11-24T21:27:05.898Z,99674.88
2023-11-24T21:29:35.689Z,99684.91
2023-11-24T21:32:04.846Z,99668.81
2023-11-24T21:34:33.249Z,99685.28
2023-11-24T21:37:01.657Z,99669.97
2023-11-24T21:39:30.041Z,99697.44
2023-11-24T21:41:58.468Z,99710.03
2023-11-24T21:44:27.633Z,99716.16
2023-11-24T21:46:57.435Z,99721.59
2023-11-24T21:49:26.016Z,99722.06
2023-11-24T21:51:55.113Z,99711.53
2023-11-24T21:54:23.556Z,99719.56
2023-11-24T21:56:51.822Z,99714.81
2023-11-24T21:59:20.275Z,99717.50
2023-11-24T22:01:48.860Z,99731.84
2023-11-24T22:04:19.011Z,99726.38
2023-11-24T22:06:48.659Z,99738.31
2023-11-24T22:09:16.942Z,99726.25
2023-11-24T22:11:45.634Z,99736.91
2023-11-24T22:14:14.381Z,99738.56
2023-11-24T22:16:42.866Z,99750.38
2023-11-24T22:19:11.718Z,99751.63
2023-11-24T22:21:41.584Z,99765.66
2023-11-24T22:24:10.106Z,99771.75
2023-11-24T22:26:39.312Z,99765.50
2023-11-24T22:29:07.778Z,99778.81
2023-11-24T22:31:36.068Z,99788.59
2023-11-24T22:34:05.206Z,99786.66
2023-11-24T22:36:33.503Z,99795.16
2023-11-24T22:39:03.492Z,99803.88
2023-11-24T22:41:33.788Z,99801.44
2023-11-24T22:44:02.172Z,99806.50
2023-11-24T22:46:30.489Z,99812.22
2023-11-24T22:48:58.849Z,99821.41
2023-11-24T22:51:28.357Z,99823.38
2023-11-24T22:53:56.942Z,99813.00
2023-11-24T22:56:28.123Z,99834.84
2023-11-24T22:58:59.706Z,99811.63
2023-11-24T23:01:29.855Z,99810.06
2023-11-24T23:04:00.645Z,99828.94
2023-11-24T23:06:30.412Z,99841.53
2023-11-24T23:08:59.719Z,99848.28
2023-11-24T23:11:32.791Z,99857.34
2023-11-24T23:14:01.459Z,99853.97
2023-11-24T23:16:34.197Z,99861.56
2023-11-24T23:19:04.880Z,99854.06
2023-11-24T23:21:33.421Z,99860.44
2023-11-24T23:24:01.779Z,99875.06
2023-11-24T23:26:31.859Z,99858.81
2023-11-24T23:29:01.545Z,99878.25
2023-11-24T23:31:30.113Z,99852.94
2023-11-24T23:33:58.382Z,99881.47
2023-11-24T23:36:26.836Z,99880.78
2023-11-24T23:38:56.237Z,99852.44
2023-11-24T23:41:24.819Z,99867.13
2023-11-24T23:43:55.025Z,99890.41
2023-11-24T23:46:23.496Z,99895.53
2023-11-24T23:48:51.898Z,99912.34
2023-11-24T23:51:22.032Z,99923.34
2023-11-24T23:53:50.613Z,99916.53
2023-11-24T23:56:18.875Z,99930.00
2023-11-24T23:58:47.163Z,99922.13
